Latest Weather Observations for Mandurah

IDW60801

Issued at 7:05 am WST Thursday 27 November 2014 (issued every 30 minutes, with the page automatically refreshed every 10 minutes)

About weather observations | Map of weather stations | Latest weather observations for WA | Other Formats
Station Details ID: 009977 Name: MANDURAH Lat: -32.52 Lon: 115.71 Height: 3.0 m
Data from the previous 72 hours. | See also: Recent months at Mandurah
Date/Time
WST
Temp
°C
App
Temp
°C
Dew
Point
Rel
Hum
%
Delta-T
°C
Wind Press
QNH
hPa
Press
MSL
hPa
Rain
since 9 am
mm
Dir
 
Spd
km/h
Gust
km/h
Spd
kts
Gust
kts
27/07:00am 20.4 21.4 17.8 85 1.6 N 9 11 5 6 1011.9 1011.9 5.2
27/06:30am 20.3 21.5 16.9 81 2.1 SSE 6 7 3 4 1011.3 1011.3 5.2
27/06:00am 20.2 21.3 16.6 80 2.2 SE 6 9 3 5 1011.3 1011.3 5.2
27/05:30am 20.0 21.4 17.4 85 1.6 SSE 6 7 3 4 1010.7 1010.7 5.2
27/05:00am 20.1 21.4 17.5 85 1.6 SSE 7 11 4 6 1010.8 1010.8 5.2
27/04:30am 20.2 20.9 16.2 78 2.4 S 7 9 4 5 1010.5 1010.5 5.2
27/04:00am 20.6 20.8 17.6 83 1.8 SW 13 19 7 10 1009.9 1009.9 5.2
27/03:30am 20.8 21.4 15.8 73 3.0 W 7 15 4 8 1009.4 1009.4 5.2
27/03:00am 21.6 22.3 16.1 71 3.3 N 7 15 4 8 1009.0 1009.0 5.2
27/02:30am 21.4 20.2 16.1 72 3.2 NE 17 20 9 11 1008.1 1008.1 5.2
27/02:00am 21.0 20.2 16.0 73 3.0 NE 15 19 8 10 1008.4 1008.4 5.2
27/01:30am 20.5 19.8 15.3 72 3.1 E 13 20 7 11 1008.3 1008.3 5.2
27/01:00am 20.3 20.5 15.7 75 2.7 E 9 17 5 9 1008.5 1008.5 5.2
27/12:30am 20.6 19.7 15.8 74 2.9 E 15 26 8 14 1008.9 1008.9 5.2
27/12:00am 20.7 19.4 15.7 73 3.0 E 17 28 9 15 1009.0 1009.0 5.2
 
Date/Time
WST
Temp
°C
App
Temp
°C
Dew
Point
Rel
Hum
%
Delta-T
°C
Wind Press
QNH
hPa
Press
MSL
hPa
Rain
since 9 am
mm
Dir
 
Spd
km/h
Gust
km/h
Spd
kts
Gust
kts
26/11:30pm 20.7 19.7 15.7 73 3.0 E 15 22 8 12 1009.3 1009.3 5.2
26/11:00pm 20.4 19.9 16.0 76 2.6 ESE 13 19 7 10 1009.3 1009.3 5.2
26/10:30pm 20.4 20.5 16.6 79 2.3 SE 11 17 6 9 1009.5 1009.5 5.2
26/10:00pm 20.6 20.6 17.2 81 2.1 SE 13 20 7 11 1009.9 1009.9 5.2
26/09:30pm 20.1 20.4 17.1 83 1.8 SE 11 19 6 10 1010.7 1010.7 5.2
26/09:00pm 20.0 18.8 18.5 91 0.9 SE 22 37 12 20 1009.3 1009.3 5.2
26/08:58pm 20.1 19.6 18.6 91 0.9 SSE 19 30 10 16 1009.9 1009.9 5.2
26/08:30pm 20.0 19.6 18.1 89 1.2 SE 17 22 9 12 1012.0 1012.0 5.2
26/08:00pm 20.0 20.3 18.7 92 0.8 ESE 15 22 8 12 1012.1 1012.1 5.2
26/07:30pm 20.3 19.9 18.1 87 1.4 ESE 17 24 9 13 1011.8 1011.8 4.6
26/07:00pm 21.3 22.0 17.9 81 2.1 ESE 11 17 6 9 1012.1 1012.1 3.6
26/06:30pm 22.1 21.7 17.2 74 3.0 NNE 15 20 8 11 1012.0 1012.0 2.8
26/06:00pm 22.5 25.6 18.7 79 2.4 CALM 0 2 0 1 1011.2 1011.2 2.4
26/05:30pm 22.9 23.7 17.4 71 3.4 W 9 13 5 7 1010.0 1010.0 2.4
26/05:00pm 23.2 23.7 15.5 62 4.6 E 7 17 4 9 1009.3 1009.3 2.4
26/04:30pm 23.0 22.0 16.5 67 4.0 ESE 17 24 9 13 1007.7 1007.7 2.2
26/04:00pm 25.9 23.1 14.4 49 6.9 SE 22 37 12 20 1007.6 1007.6 0.6
26/03:30pm 27.0 24.1 14.1 45 7.7 SE 22 32 12 17 1007.6 1007.6 0.6
26/03:00pm 25.2 23.3 14.3 50 6.5 SE 17 24 9 13 1008.3 1008.3 0.6
26/02:30pm 23.5 20.7 15.3 60 4.9 SE 24 37 13 20 1008.5 1008.5 0.6
26/02:29pm 23.4 20.7 15.5 61 4.7 SE 24 32 13 17 1008.7 1008.7 0.6
26/02:00pm 24.8 24.8 16.2 58 5.3 SSE 11 13 6 7 1010.7 1010.7 0.2
26/01:30pm 25.7 26.1 15.4 53 6.2 S 7 17 4 9 1010.5 1010.5 0.2
26/01:00pm 27.9 26.4 11.9 37 9.2 SE 11 19 6 10 1009.9 1009.9 0.0
26/12:30pm 27.5 24.9 10.7 35 9.5 ESE 15 22 8 12 1010.2 1010.2 0.0
26/12:00pm 30.0 27.9 11.0 31 10.9 ESE 13 28 7 15 1010.4 1010.4 0.0
26/11:30am 28.2 25.7 10.9 34 9.8 E 15 22 8 12 1010.7 1010.7 0.0
26/11:00am 25.1 22.4 10.2 39 8.3 ESE 15 20 8 11 1011.2 1011.2 0.0
26/10:30am 24.6 21.8 10.1 40 8.0 E 15 22 8 12 1011.8 1011.8 0.0
26/10:00am 25.0 22.1 9.7 38 8.4 E 15 22 8 12 1012.1 1012.1 0.0
26/09:30am 23.7 21.7 10.0 42 7.5 E 11 17 6 9 1012.4 1012.4 0.0
26/09:00am 22.8 20.8 10.3 45 6.8 E 11 19 6 10 1012.6 1012.6 0.0
26/08:30am 22.6 19.6 9.4 43 7.1 E 15 24 8 13 1012.6 1012.6 0.0
26/08:00am 22.6 20.0 9.4 43 7.1 E 13 24 7 13 1012.8 1012.8 0.0
26/07:30am 21.9 18.6 9.4 45 6.7 E 17 28 9 15 1012.8 1012.8 0.0
26/07:00am 21.2 17.8 9.1 46 6.4 E 17 26 9 14 1012.9 1012.9 0.0
26/06:30am 20.7 16.9 9.0 47 6.2 E 19 30 10 16 1012.9 1012.9 0.0
26/06:00am 20.4 16.4 9.0 48 6.0 E 20 32 11 17 1012.7 1012.7 0.0
26/05:30am 20.3 16.3 8.9 48 6.0 E 20 33 11 18 1012.7 1012.7 0.0
26/05:00am 20.4 15.6 9.0 48 6.0 E 24 43 13 23 1012.6 1012.6 0.0
26/04:30am 20.4 16.4 9.0 48 6.0 E 20 41 11 22 1012.8 1012.8 0.0
26/04:00am 20.4 17.7 9.0 48 6.0 E 13 26 7 14 1012.5 1012.5 0.0
26/03:30am 20.6 17.9 8.9 47 6.2 E 13 22 7 12 1012.6 1012.6 0.0
26/03:00am 21.1 17.7 9.0 46 6.4 E 17 30 9 16 1012.3 1012.3 0.0
26/02:30am 21.3 17.3 8.9 45 6.6 E 20 39 11 21 1012.2 1012.2 0.0
26/02:00am 21.6 17.6 9.2 45 6.6 E 20 33 11 18 1012.2 1012.2 0.0
26/01:30am 21.9 16.8 9.1 44 6.8 E 26 39 14 21 1012.2 1012.2 0.0
26/01:00am 22.3 17.9 9.1 43 7.1 E 22 44 12 24 1012.5 1012.5 0.0
26/12:30am 22.7 18.8 9.5 43 7.1 E 20 46 11 25 1012.7 1012.7 0.0
26/12:00am 22.9 18.7 9.7 43 7.2 ESE 22 37 12 20 1012.8 1012.8 0.0
 
Date/Time
WST
Temp
°C
App
Temp
°C
Dew
Point
Rel
Hum
%
Delta-T
°C
Wind Press
QNH
hPa
Press
MSL
hPa
Rain
since 9 am
mm
Dir
 
Spd
km/h
Gust
km/h
Spd
kts
Gust
kts
25/11:30pm 23.6 19.0 9.6 41 7.6 ESE 24 35 13 19 1012.9 1012.9 0.0
25/11:00pm 24.4 19.6 8.8 37 8.4 ESE 24 37 13 20 1013.2 1013.2 0.0
25/10:30pm 24.9 20.6 7.1 32 9.3 ESE 19 32 10 17 1013.5 1013.5 0.0
25/10:00pm 25.4 22.0 6.1 29 10.0 SE 13 19 7 10 1013.5 1013.5 0.0
25/09:30pm 25.7 22.4 6.3 29 10.1 SE 13 20 7 11 1013.5 1013.5 0.0
25/09:00pm 26.2 23.0 6.8 29 10.2 SSE 13 19 7 10 1013.6 1013.6 0.0
25/08:30pm 26.1 24.0 11.1 39 8.5 SSE 13 19 7 10 1013.3 1013.3 0.0
25/08:00pm 26.2 24.8 12.3 42 8.0 SSE 11 17 6 9 1013.1 1013.1 0.0
25/07:30pm 26.5 24.8 13.6 45 7.6 SSE 15 20 8 11 1012.9 1012.9 0.0
25/07:00pm 27.6 26.7 11.2 36 9.3 SSE 7 11 4 6 1012.9 1012.9 0.0
25/06:30pm 28.6 26.1 11.2 34 10.0 S 15 20 8 11 1013.1 1013.1 0.0
25/06:00pm 29.3 27.3 11.4 33 10.3 S 13 22 7 12 1012.9 1012.9 0.0
25/05:30pm 29.6 26.6 10.7 31 10.8 S 17 24 9 13 1012.9 1012.9 0.0
25/05:00pm 30.0 27.3 10.5 30 11.1 S 15 26 8 14 1013.1 1013.1 0.0
25/04:30pm 30.2 26.5 10.2 29 11.3 S 20 32 11 17 1013.3 1013.3 0.0
25/04:00pm 30.4 26.5 9.3 27 11.8 SSW 20 32 11 17 1013.7 1013.7 0.0
25/03:30pm 30.6 27.4 11.1 30 11.2 S 19 26 10 14 1014.0 1014.0 0.0
25/03:00pm 30.7 27.5 10.1 28 11.7 S 17 28 9 15 1014.3 1014.3 0.0
25/02:30pm 31.3 28.2 8.9 25 12.5 S 15 22 8 12 1014.6 1014.6 0.0
25/02:00pm 31.3 28.4 8.3 24 12.7 S 13 20 7 11 1015.0 1015.0 0.0
25/01:30pm 30.9 28.0 8.0 24 12.6 S 13 20 7 11 1015.6 1015.6 0.0
25/01:00pm 29.6 26.2 7.5 25 11.9 S 15 22 8 12 1016.0 1016.0 0.0
25/12:30pm 29.4 27.0 8.5 27 11.5 SSE 11 17 6 9 1016.4 1016.4 0.0
25/12:00pm 29.1 26.6 8.2 27 11.4 SE 11 19 6 10 1016.9 1016.9 0.0
25/11:30am 30.2 28.2 8.6 26 11.9 E 9 17 5 9 1017.4 1017.4 0.0
25/11:00am 29.1 27.1 8.7 28 11.2 ESE 9 17 5 9 1017.8 1017.8 0.0
25/10:30am 27.9 25.8 8.2 29 10.7 E 9 19 5 10 1018.1 1018.1 0.0
25/10:00am 27.0 24.5 8.4 31 10.1 E 11 20 6 11 1018.5 1018.5 0.0
25/09:30am 25.2 22.3 8.2 34 9.1 E 13 22 7 12 1018.6 1018.6 0.0
25/09:00am 23.9 20.6 7.9 36 8.4 E 15 24 8 13 1018.9 1018.9 0.0
25/08:30am 22.0 18.5 7.4 39 7.6 E 15 30 8 16 1019.2 1019.2 0.0
25/08:00am 20.4 17.9 8.1 45 6.4 E 11 26 6 14 1019.3 1019.3 0.0
25/07:30am 18.6 14.8 7.7 49 5.5 E 17 32 9 17 1019.2 1019.2 0.0
25/07:00am 17.3 12.1 7.1 51 5.1 E 24 41 13 22 1018.9 1018.9 0.0
25/06:30am 16.4 12.0 7.3 55 4.5 E 20 33 11 18 1018.8 1018.8 0.0
25/06:00am 15.7 12.3 7.7 59 4.0 ESE 15 20 8 11 1018.7 1018.7 0.0
25/05:30am 15.1 11.2 7.2 59 3.9 ESE 17 24 9 13 1018.6 1018.6 0.0
25/05:00am 15.1 11.3 7.4 60 3.8 ESE 17 22 9 12 1018.3 1018.3 0.0
25/04:30am 15.7 12.3 7.5 58 4.1 ESE 15 24 8 13 1018.2 1018.2 0.0
25/04:00am 16.2 13.1 7.4 56 4.4 ESE 13 20 7 11 1018.2 1018.2 0.0
25/03:30am 16.6 13.2 7.5 55 4.6 ESE 15 24 8 13 1018.1 1018.1 0.0
25/03:00am 17.0 14.0 7.9 55 4.6 ESE 13 22 7 12 1018.1 1018.1 0.0
25/02:30am 17.3 13.5 7.6 53 4.9 ESE 17 26 9 14 1018.1 1018.1 0.0
25/02:00am 17.8 13.7 7.8 52 5.1 ESE 19 26 10 14 1018.2 1018.2 0.0
25/01:30am 18.1 15.1 7.8 51 5.2 SE 13 19 7 10 1018.3 1018.3 0.0
25/01:00am 18.2 14.7 7.0 48 5.6 ESE 15 22 8 12 1018.3 1018.3 0.0
25/12:30am 18.1 14.9 6.9 48 5.6 SE 13 20 7 11 1018.4 1018.4 0.0
25/12:00am 18.5 14.7 7.6 49 5.5 SSE 17 24 9 13 1018.5 1018.5 0.0
 
Date/Time
WST
Temp
°C
App
Temp
°C
Dew
Point
Rel
Hum
%
Delta-T
°C
Wind Press
QNH
hPa
Press
MSL
hPa
Rain
since 9 am
mm
Dir
 
Spd
km/h
Gust
km/h
Spd
kts
Gust
kts
24/11:30pm 18.1 15.0 10.2 60 4.2 SSE 17 24 9 13 1018.9 1018.9 0.0
24/11:00pm 18.1 15.6 11.0 63 3.8 SSE 15 24 8 13 1018.9 1018.9 0.0
24/10:30pm 18.3 15.4 10.9 62 4.0 SSE 17 24 9 13 1019.0 1019.0 0.0
24/10:00pm 18.8 15.9 11.1 61 4.2 SSE 17 22 9 12 1019.2 1019.2 0.0
24/09:30pm 19.5 16.6 11.0 58 4.6 SSE 17 24 9 13 1019.3 1019.3 0.0
24/09:00pm 20.0 16.9 12.3 61 4.3 S 20 28 11 15 1019.4 1019.4 0.0
24/08:30pm 20.1 17.8 13.1 64 4.0 S 17 24 9 13 1019.2 1019.2 0.0
24/08:00pm 20.3 18.1 13.3 64 4.0 S 17 24 9 13 1019.0 1019.0 0.0
24/07:30pm 20.4 18.1 12.9 62 4.3 S 17 24 9 13 1019.0 1019.0 0.0
24/07:00pm 20.2 18.2 12.7 62 4.2 S 15 22 8 12 1019.1 1019.1 0.0
24/06:30pm 20.6 18.1 12.3 59 4.7 S 17 32 9 17 1018.9 1018.9 0.0
24/06:00pm 20.7 18.1 11.9 57 4.9 S 17 30 9 16 1018.6 1018.6 0.0
24/05:30pm 20.8 16.7 11.4 55 5.2 SSW 24 37 13 20 1018.4 1018.4 0.0
24/05:00pm 20.8 16.6 11.2 54 5.3 SSW 24 37 13 20 1018.4 1018.4 0.0
24/04:30pm 21.5 17.2 10.6 50 6.0 SSW 24 37 13 20 1018.4 1018.4 0.0
24/04:00pm 22.1 17.2 9.9 46 6.6 SSW 26 35 14 19 1018.5 1018.5 0.0
24/03:30pm 22.6 18.5 10.1 45 6.8 SSW 22 33 12 18 1018.6 1018.6 0.0
24/03:00pm 22.4 18.1 9.2 43 7.1 SSW 22 32 12 17 1018.8 1018.8 0.0
24/02:30pm 22.9 18.7 8.2 39 7.8 SSW 20 33 11 18 1019.2 1019.2 0.0
24/02:00pm 22.8 18.2 9.6 43 7.1 WSW 24 33 13 18 1019.5 1019.5 0.0
24/01:30pm 23.3 19.1 9.7 42 7.4 WSW 22 32 12 17 1019.5 1019.5 0.0
24/01:00pm 22.9 18.5 9.0 41 7.4 WSW 22 32 12 17 1019.8 1019.8 0.0
24/12:38pm 22.4 16.9 9.2 43 7.1 W 28 35 15 19 1020.1 1020.1 0.0
24/12:30pm 24.2 22.1 6.5 32 9.1 WSW 7 11 4 6 1020.3 1020.3 0.0
24/12:00pm 23.1 20.6 4.6 30 9.1 SSE 7 15 4 8 1020.6 1020.6 0.0
24/11:30am 22.7 20.5 5.2 32 8.7 SSE 6 11 3 6 1021.0 1021.0 0.0
24/11:00am 23.3 20.6 5.7 32 8.9 ESE 9 17 5 9 1021.4 1021.4 0.0
24/10:30am 22.2 19.7 4.7 32 8.6 E 7 15 4 8 1021.8 1021.8 0.0
24/10:00am 21.9 19.1 5.3 34 8.2 E 9 20 5 11 1022.1 1022.1 0.0
24/09:30am 20.4 17.8 6.0 39 7.2 ESE 9 17 5 9 1022.3 1022.3 0.0
24/09:00am 18.8 15.8 6.0 43 6.3 ESE 11 19 6 10 1022.6 1022.6 0.0
24/08:30am 17.5 14.5 6.1 47 5.6 ESE 11 17 6 9 1022.8 1022.8 0.0
24/08:00am 16.4 12.2 5.7 49 5.1 E 17 24 9 13 1023.1 1023.1 0.0
24/07:30am 15.0 11.3 6.3 56 4.2 ESE 15 22 8 12 1023.2 1023.2 0.0

Other Formats:

Comma delimited format used in spreadsheet applications
http://www.bom.gov.au/fwo/IDW60801/IDW60801.94605.axf

JavaScript Object Notation format (JSON) in row-major order
http://www.bom.gov.au/fwo/IDW60801/IDW60801.94605.json